Aeroporto :
LOGIN :

Iscrizione | Disclaimer

   EN    FR    IT 

 










Sommario :    VFR   VFR Marginale   IFR   IFR Intensivo   IFR Molto Intensivo
Visibilità : 
Base nubi : 
>= 8 km
>= 3000ft
5 / 8 km
1000 / 3000 ft
1500m / 5 km
500 / 1000 ft
800 / 1500m
200 / 500 ft
< 800m
< 200 ft
Simboli :   Temporali  Nebbia  Neve Forte  Precipitazioni Forti  Vento > 20 kt
SIGMETs :   Varie  Temporali  Ghiacco  Turbolenza  Onda orograficha  Ceneri Vulcaniche






- Altitudine del aeroporto : 1504 ft
- Codice IATA : PNA


LEPP - Noain Pamplona

ULTIMO METAR :
  • 220900Z 34005KT 290V020 9999 BKN018 BKN026 16/12 Q1024

METARs OBSOLETI :
  • 220830Z 01004KT 330V050 9999 BKN022 BKN030 16/12 Q1023
  • 220800Z VRB02KT 9999 BKN025 15/11 Q1023
  • 220730Z VRB02KT 9999 FEW020 BKN025 15/10 Q1023
  • 220700Z VRB02KT 9999 FEW020 SCT028 14/11 Q1023
  • 220630Z VRB01KT 9999 FEW020 14/12 Q1023
  • 220600Z VRB02KT 9999 FEW020 13/11 Q1023
  • 220530Z 01003KT 340V050 9999 FEW020 12/11 Q1023
  • 220500Z 07003KT 9999 FEW020 11/10 Q1022
  • 220430Z 00000KT 9999 FEW020 11/10 Q1023
  • 220400Z 00000KT CAVOK 11/10 Q1023

TAF TAF LEPP
Valido dal 22 a 09 ore il 23 a 09 ore UTC


220800Z 2209/2309 VRB03KT 9999 FEW050 TX19/2210Z TN14/2300Z
BECMG 2209/2211 34013KT
BECMG 2219/2221 VRB03KT
PROB30
TEMPO 2222/2309 3000 DZ BKN010
PROB40 2300/2303 34010KT



MetMap, La meteo Aeronautica in un colpo d'occhio ! - Copyright ORBIFLY Dicembre 2007 - Disclaimer

ORBIFLY MET'MAP TEAM :

Programmazione e sviluppo : Alexandra Zaïnal
Concezione : Baudouin d'Aumeries
Supporto tecnico e logistico : Manuel Goepfert
Aiuto : Marc-Olivier Méhu
Aiuto per la traduzione : Arnaldo La Scala




FONTI E CREDITI :

   NOAA